sensor_id;sensor_type;location;lat;lon;timestamp;P1;durP1;ratioP1;P2;durP2;ratioP2
67528;SDS011;54366;51.980;5.856;2023-05-17T00:01:42;10.20;;;3.53;;
67528;SDS011;54366;51.980;5.856;2023-05-17T00:04:15;11.77;;;3.75;;
67528;SDS011;54366;51.980;5.856;2023-05-17T00:06:42;7.93;;;3.13;;
67528;SDS011;54366;51.980;5.856;2023-05-17T00:09:15;6.68;;;2.80;;
67528;SDS011;54366;51.980;5.856;2023-05-17T00:11:48;5.70;;;2.50;;
67528;SDS011;54366;51.980;5.856;2023-05-17T00:14:14;6.15;;;2.63;;
67528;SDS011;54366;51.980;5.856;2023-05-17T00:16:47;5.43;;;2.08;;
67528;SDS011;54366;51.980;5.856;2023-05-17T00:19:20;7.30;;;2.80;;
67528;SDS011;54366;51.980;5.856;2023-05-17T00:21:53;6.10;;;2.75;;
67528;SDS011;54366;51.980;5.856;2023-05-17T00:24:26;6.65;;;2.88;;
67528;SDS011;54366;51.980;5.856;2023-05-17T00:26:59;7.90;;;3.15;;
67528;SDS011;54366;51.980;5.856;2023-05-17T00:29:32;10.95;;;3.80;;
67528;SDS011;54366;51.980;5.856;2023-05-17T00:32:11;11.45;;;3.80;;
67528;SDS011;54366;51.980;5.856;2023-05-17T00:34:44;10.80;;;4.25;;
67528;SDS011;54366;51.980;5.856;2023-05-17T00:37:24;12.25;;;4.07;;
67528;SDS011;54366;51.980;5.856;2023-05-17T00:39:50;13.10;;;4.30;;
67528;SDS011;54366;51.980;5.856;2023-05-17T00:42:25;10.35;;;4.10;;
67528;SDS011;54366;51.980;5.856;2023-05-17T00:44:51;9.90;;;3.83;;
67528;SDS011;54366;51.980;5.856;2023-05-17T00:47:24;9.52;;;3.97;;
67528;SDS011;54366;51.980;5.856;2023-05-17T00:49:50;10.18;;;4.00;;
67528;SDS011;54366;51.980;5.856;2023-05-17T00:52:23;13.48;;;4.72;;
67528;SDS011;54366;51.980;5.856;2023-05-17T00:54:56;10.48;;;3.85;;
67528;SDS011;54366;51.980;5.856;2023-05-17T00:57:23;10.80;;;4.00;;
67528;SDS011;54366;51.980;5.856;2023-05-17T00:59:56;7.82;;;3.45;;
67528;SDS011;54366;51.980;5.856;2023-05-17T01:02:29;10.02;;;3.90;;
67528;SDS011;54366;51.980;5.856;2023-05-17T01:04:56;11.35;;;4.60;;
67528;SDS011;54366;51.980;5.856;2023-05-17T01:07:28;11.35;;;4.50;;
67528;SDS011;54366;51.980;5.856;2023-05-17T01:09:54;12.30;;;4.38;;
67528;SDS011;54366;51.980;5.856;2023-05-17T01:12:39;9.27;;;3.47;;
67528;SDS011;54366;51.980;5.856;2023-05-17T01:15:41;5.32;;;2.85;;
67528;SDS011;54366;51.980;5.856;2023-05-17T01:18:43;9.00;;;3.43;;
67528;SDS011;54366;51.980;5.856;2023-05-17T01:21:38;8.77;;;3.75;;
67528;SDS011;54366;51.980;5.856;2023-05-17T01:24:44;7.53;;;3.42;;
67528;SDS011;54366;51.980;5.856;2023-05-17T01:27:38;14.93;;;4.75;;
67528;SDS011;54366;51.980;5.856;2023-05-17T01:30:21;11.00;;;4.43;;
67528;SDS011;54366;51.980;5.856;2023-05-17T01:32:57;10.32;;;4.00;;
67528;SDS011;54366;51.980;5.856;2023-05-17T01:35:25;10.25;;;4.32;;
67528;SDS011;54366;51.980;5.856;2023-05-17T01:37:58;8.27;;;4.07;;
67528;SDS011;54366;51.980;5.856;2023-05-17T01:40:24;10.05;;;4.40;;
67528;SDS011;54366;51.980;5.856;2023-05-17T01:43:03;10.45;;;4.10;;
67528;SDS011;54366;51.980;5.856;2023-05-17T01:45:45;11.43;;;3.85;;
67528;SDS011;54366;51.980;5.856;2023-05-17T01:48:23;9.98;;;4.00;;
67528;SDS011;54366;51.980;5.856;2023-05-17T01:51:10;14.55;;;4.50;;
67528;SDS011;54366;51.980;5.856;2023-05-17T01:53:53;14.27;;;4.72;;
67528;SDS011;54366;51.980;5.856;2023-05-17T01:56:32;8.98;;;3.88;;
67528;SDS011;54366;51.980;5.856;2023-05-17T01:59:06;10.23;;;3.90;;
67528;SDS011;54366;51.980;5.856;2023-05-17T02:01:43;11.05;;;4.30;;
67528;SDS011;54366;51.980;5.856;2023-05-17T02:06:43;8.68;;;4.00;;
67528;SDS011;54366;51.980;5.856;2023-05-17T02:09:16;9.45;;;3.72;;
67528;SDS011;54366;51.980;5.856;2023-05-17T02:11:49;7.32;;;3.85;;
67528;SDS011;54366;51.980;5.856;2023-05-17T02:14:22;11.25;;;4.88;;
67528;SDS011;54366;51.980;5.856;2023-05-17T02:16:55;9.00;;;4.60;;
67528;SDS011;54366;51.980;5.856;2023-05-17T02:19:28;9.57;;;3.97;;
67528;SDS011;54366;51.980;5.856;2023-05-17T02:22:01;9.30;;;3.95;;
67528;SDS011;54366;51.980;5.856;2023-05-17T02:24:34;9.93;;;4.00;;
67528;SDS011;54366;51.980;5.856;2023-05-17T02:27:01;11.07;;;4.15;;
67528;SDS011;54366;51.980;5.856;2023-05-17T02:29:34;15.60;;;6.03;;
67528;SDS011;54366;51.980;5.856;2023-05-17T02:32:07;12.55;;;5.35;;
67528;SDS011;54366;51.980;5.856;2023-05-17T02:34:54;12.82;;;4.50;;
67528;SDS011;54366;51.980;5.856;2023-05-17T02:37:27;8.45;;;3.78;;
67528;SDS011;54366;51.980;5.856;2023-05-17T02:39:53;9.07;;;4.07;;
67528;SDS011;54366;51.980;5.856;2023-05-17T02:42:26;12.98;;;5.38;;
67528;SDS011;54366;51.980;5.856;2023-05-17T02:44:59;7.32;;;3.92;;
67528;SDS011;54366;51.980;5.856;2023-05-17T02:47:32;12.63;;;5.60;;
67528;SDS011;54366;51.980;5.856;2023-05-17T02:50:05;10.45;;;4.63;;
67528;SDS011;54366;51.980;5.856;2023-05-17T02:52:39;12.88;;;4.97;;
67528;SDS011;54366;51.980;5.856;2023-05-17T02:55:12;11.05;;;4.20;;
67528;SDS011;54366;51.980;5.856;2023-05-17T02:57:39;13.63;;;5.70;;
67528;SDS011;54366;51.980;5.856;2023-05-17T03:00:11;13.45;;;5.43;;
67528;SDS011;54366;51.980;5.856;2023-05-17T03:02:44;10.80;;;5.13;;
67528;SDS011;54366;51.980;5.856;2023-05-17T03:05:17;11.65;;;5.22;;
67528;SDS011;54366;51.980;5.856;2023-05-17T03:07:48;18.75;;;6.03;;
67528;SDS011;54366;51.980;5.856;2023-05-17T03:10:21;12.18;;;5.28;;
67528;SDS011;54366;51.980;5.856;2023-05-17T03:12:53;15.40;;;5.80;;
67528;SDS011;54366;51.980;5.856;2023-05-17T03:15:30;15.30;;;6.00;;
67528;SDS011;54366;51.980;5.856;2023-05-17T03:18:03;18.10;;;6.72;;
67528;SDS011;54366;51.980;5.856;2023-05-17T03:20:37;12.90;;;5.78;;
67528;SDS011;54366;51.980;5.856;2023-05-17T03:23:10;10.05;;;4.57;;
67528;SDS011;54366;51.980;5.856;2023-05-17T03:25:51;7.75;;;4.15;;
67528;SDS011;54366;51.980;5.856;2023-05-17T03:28:25;10.55;;;5.13;;
67528;SDS011;54366;51.980;5.856;2023-05-17T03:30:51;12.90;;;5.38;;
67528;SDS011;54366;51.980;5.856;2023-05-17T03:33:38;10.70;;;4.75;;
67528;SDS011;54366;51.980;5.856;2023-05-17T03:36:12;9.80;;;4.10;;
67528;SDS011;54366;51.980;5.856;2023-05-17T03:38:45;4.33;;;2.83;;
67528;SDS011;54366;51.980;5.856;2023-05-17T03:41:18;3.28;;;2.38;;
67528;SDS011;54366;51.980;5.856;2023-05-17T03:43:51;5.78;;;3.20;;
67528;SDS011;54366;51.980;5.856;2023-05-17T03:46:25;8.93;;;3.87;;
67528;SDS011;54366;51.980;5.856;2023-05-17T03:48:57;7.63;;;3.67;;
67528;SDS011;54366;51.980;5.856;2023-05-17T03:51:32;5.82;;;3.60;;
67528;SDS011;54366;51.980;5.856;2023-05-17T03:53:59;5.80;;;3.08;;
67528;SDS011;54366;51.980;5.856;2023-05-17T03:56:32;7.10;;;3.20;;
67528;SDS011;54366;51.980;5.856;2023-05-17T03:59:05;7.50;;;3.83;;
67528;SDS011;54366;51.980;5.856;2023-05-17T04:01:39;8.77;;;4.30;;
67528;SDS011;54366;51.980;5.856;2023-05-17T04:04:13;9.35;;;4.65;;
67528;SDS011;54366;51.980;5.856;2023-05-17T04:06:46;9.07;;;4.78;;
67528;SDS011;54366;51.980;5.856;2023-05-17T04:09:19;9.25;;;4.57;;
67528;SDS011;54366;51.980;5.856;2023-05-17T04:11:52;10.00;;;4.93;;
67528;SDS011;54366;51.980;5.856;2023-05-17T04:14:25;10.32;;;4.90;;
67528;SDS011;54366;51.980;5.856;2023-05-17T04:16:51;11.07;;;5.10;;
67528;SDS011;54366;51.980;5.856;2023-05-17T04:19:24;10.00;;;4.95;;
67528;SDS011;54366;51.980;5.856;2023-05-17T04:21:57;11.55;;;5.05;;
67528;SDS011;54366;51.980;5.856;2023-05-17T04:24:26;10.63;;;5.28;;
67528;SDS011;54366;51.980;5.856;2023-05-17T04:26:58;9.90;;;4.82;;
67528;SDS011;54366;51.980;5.856;2023-05-17T04:31:59;9.38;;;4.55;;
67528;SDS011;54366;51.980;5.856;2023-05-17T04:34:32;10.25;;;4.88;;
67528;SDS011;54366;51.980;5.856;2023-05-17T04:37:07;8.38;;;4.80;;
67528;SDS011;54366;51.980;5.856;2023-05-17T04:39:39;12.38;;;4.80;;
67528;SDS011;54366;51.980;5.856;2023-05-17T04:42:12;10.88;;;5.00;;
67528;SDS011;54366;51.980;5.856;2023-05-17T04:44:44;8.45;;;4.97;;
67528;SDS011;54366;51.980;5.856;2023-05-17T04:47:17;11.05;;;5.30;;
67528;SDS011;54366;51.980;5.856;2023-05-17T04:49:44;13.20;;;5.80;;
67528;SDS011;54366;51.980;5.856;2023-05-17T04:52:16;10.70;;;5.05;;
67528;SDS011;54366;51.980;5.856;2023-05-17T04:54:44;9.07;;;4.80;;
67528;SDS011;54366;51.980;5.856;2023-05-17T04:57:18;13.18;;;5.43;;
67528;SDS011;54366;51.980;5.856;2023-05-17T05:00:00;9.07;;;5.03;;
67528;SDS011;54366;51.980;5.856;2023-05-17T05:02:39;8.70;;;4.68;;
67528;SDS011;54366;51.980;5.856;2023-05-17T05:05:14;9.82;;;5.05;;
67528;SDS011;54366;51.980;5.856;2023-05-17T05:07:42;9.07;;;5.10;;
67528;SDS011;54366;51.980;5.856;2023-05-17T05:10:14;8.98;;;4.80;;
67528;SDS011;54366;51.980;5.856;2023-05-17T05:12:48;8.40;;;4.55;;
67528;SDS011;54366;51.980;5.856;2023-05-17T05:15:22;9.20;;;4.90;;
67528;SDS011;54366;51.980;5.856;2023-05-17T05:17:54;10.82;;;5.20;;
67528;SDS011;54366;51.980;5.856;2023-05-17T05:22:56;9.13;;;4.43;;
67528;SDS011;54366;51.980;5.856;2023-05-17T05:25:29;9.00;;;4.63;;
67528;SDS011;54366;51.980;5.856;2023-05-17T05:28:02;8.95;;;3.92;;
67528;SDS011;54366;51.980;5.856;2023-05-17T05:30:38;9.10;;;4.47;;
67528;SDS011;54366;51.980;5.856;2023-05-17T05:33:12;7.47;;;4.32;;
67528;SDS011;54366;51.980;5.856;2023-05-17T05:35:51;7.93;;;3.85;;
67528;SDS011;54366;51.980;5.856;2023-05-17T05:38:26;8.70;;;4.10;;
67528;SDS011;54366;51.980;5.856;2023-05-17T05:41:00;9.17;;;3.73;;
67528;SDS011;54366;51.980;5.856;2023-05-17T05:43:35;8.48;;;3.78;;
67528;SDS011;54366;51.980;5.856;2023-05-17T05:46:02;7.63;;;3.10;;
67528;SDS011;54366;51.980;5.856;2023-05-17T05:48:35;9.30;;;3.50;;
67528;SDS011;54366;51.980;5.856;2023-05-17T05:51:10;9.77;;;4.00;;
67528;SDS011;54366;51.980;5.856;2023-05-17T05:53:44;10.50;;;4.30;;
67528;SDS011;54366;51.980;5.856;2023-05-17T05:56:16;9.55;;;4.25;;
67528;SDS011;54366;51.980;5.856;2023-05-17T05:58:49;9.13;;;3.72;;
67528;SDS011;54366;51.980;5.856;2023-05-17T06:01:23;7.28;;;3.53;;
67528;SDS011;54366;51.980;5.856;2023-05-17T06:03:56;8.97;;;3.63;;
67528;SDS011;54366;51.980;5.856;2023-05-17T06:06:23;12.98;;;3.80;;
67528;SDS011;54366;51.980;5.856;2023-05-17T06:08:55;9.73;;;3.78;;
67528;SDS011;54366;51.980;5.856;2023-05-17T06:11:28;11.43;;;3.72;;
67528;SDS011;54366;51.980;5.856;2023-05-17T06:14:01;12.63;;;4.15;;
67528;SDS011;54366;51.980;5.856;2023-05-17T06:16:34;12.05;;;3.60;;
67528;SDS011;54366;51.980;5.856;2023-05-17T06:19:07;12.35;;;4.18;;
67528;SDS011;54366;51.980;5.856;2023-05-17T06:21:40;10.32;;;3.75;;
67528;SDS011;54366;51.980;5.856;2023-05-17T06:24:14;11.85;;;3.63;;
67528;SDS011;54366;51.980;5.856;2023-05-17T06:26:47;10.55;;;3.40;;
67528;SDS011;54366;51.980;5.856;2023-05-17T06:29:23;10.13;;;3.60;;
67528;SDS011;54366;51.980;5.856;2023-05-17T06:31:56;9.05;;;2.60;;
67528;SDS011;54366;51.980;5.856;2023-05-17T06:34:37;13.32;;;4.32;;
67528;SDS011;54366;51.980;5.856;2023-05-17T06:37:10;12.57;;;4.13;;
67528;SDS011;54366;51.980;5.856;2023-05-17T06:39:36;9.50;;;3.13;;
67528;SDS011;54366;51.980;5.856;2023-05-17T06:42:09;11.07;;;2.83;;
67528;SDS011;54366;51.980;5.856;2023-05-17T06:44:42;9.60;;;3.03;;
67528;SDS011;54366;51.980;5.856;2023-05-17T06:47:08;9.90;;;3.22;;
67528;SDS011;54366;51.980;5.856;2023-05-17T06:49:41;9.02;;;2.20;;
67528;SDS011;54366;51.980;5.856;2023-05-17T06:52:14;9.65;;;2.72;;
67528;SDS011;54366;51.980;5.856;2023-05-17T06:54:47;10.77;;;2.60;;
67528;SDS011;54366;51.980;5.856;2023-05-17T06:57:20;10.18;;;2.50;;
67528;SDS011;54366;51.980;5.856;2023-05-17T06:59:53;8.57;;;2.15;;
67528;SDS011;54366;51.980;5.856;2023-05-17T07:02:26;8.05;;;2.33;;
67528;SDS011;54366;51.980;5.856;2023-05-17T07:04:55;8.98;;;2.50;;
67528;SDS011;54366;51.980;5.856;2023-05-17T07:07:28;7.65;;;1.92;;
67528;SDS011;54366;51.980;5.856;2023-05-17T07:10:01;9.00;;;2.38;;
67528;SDS011;54366;51.980;5.856;2023-05-17T07:12:35;7.35;;;1.80;;
67528;SDS011;54366;51.980;5.856;2023-05-17T07:15:08;9.02;;;2.22;;
67528;SDS011;54366;51.980;5.856;2023-05-17T07:17:35;6.00;;;1.80;;
67528;SDS011;54366;51.980;5.856;2023-05-17T07:20:09;7.53;;;2.15;;
67528;SDS011;54366;51.980;5.856;2023-05-17T07:22:42;8.98;;;2.15;;
67528;SDS011;54366;51.980;5.856;2023-05-17T07:25:15;8.25;;;2.20;;
67528;SDS011;54366;51.980;5.856;2023-05-17T07:27:43;7.68;;;1.88;;
67528;SDS011;54366;51.980;5.856;2023-05-17T07:30:16;8.07;;;2.00;;
67528;SDS011;54366;51.980;5.856;2023-05-17T07:32:49;5.70;;;1.50;;
67528;SDS011;54366;51.980;5.856;2023-05-17T07:35:36;8.68;;;2.20;;
67528;SDS011;54366;51.980;5.856;2023-05-17T07:38:08;9.35;;;2.00;;
67528;SDS011;54366;51.980;5.856;2023-05-17T07:40:35;7.60;;;1.52;;
67528;SDS011;54366;51.980;5.856;2023-05-17T07:43:08;9.13;;;1.80;;
67528;SDS011;54366;51.980;5.856;2023-05-17T07:45:44;4.95;;;1.25;;
67528;SDS011;54366;51.980;5.856;2023-05-17T07:48:18;7.55;;;1.83;;
67528;SDS011;54366;51.980;5.856;2023-05-17T07:50:45;5.07;;;1.40;;
67528;SDS011;54366;51.980;5.856;2023-05-17T07:53:18;5.45;;;1.42;;
67528;SDS011;54366;51.980;5.856;2023-05-17T07:55:45;6.55;;;1.45;;
67528;SDS011;54366;51.980;5.856;2023-05-17T07:58:18;6.37;;;1.50;;
67528;SDS011;54366;51.980;5.856;2023-05-17T08:00:51;7.65;;;1.70;;
67528;SDS011;54366;51.980;5.856;2023-05-17T08:03:24;7.40;;;1.70;;
67528;SDS011;54366;51.980;5.856;2023-05-17T08:05:59;4.70;;;1.75;;
67528;SDS011;54366;51.980;5.856;2023-05-17T08:08:32;6.15;;;1.60;;
67528;SDS011;54366;51.980;5.856;2023-05-17T08:10:58;6.05;;;1.33;;
67528;SDS011;54366;51.980;5.856;2023-05-17T08:13:31;4.32;;;1.40;;
67528;SDS011;54366;51.980;5.856;2023-05-17T08:16:04;7.60;;;1.73;;
67528;SDS011;54366;51.980;5.856;2023-05-17T08:18:40;6.38;;;1.60;;
67528;SDS011;54366;51.980;5.856;2023-05-17T08:21:13;5.72;;;1.63;;
67528;SDS011;54366;51.980;5.856;2023-05-17T08:23:46;4.30;;;1.40;;
67528;SDS011;54366;51.980;5.856;2023-05-17T08:26:19;2.60;;;0.85;;
67528;SDS011;54366;51.980;5.856;2023-05-17T08:28:46;5.15;;;1.20;;
67528;SDS011;54366;51.980;5.856;2023-05-17T08:31:18;3.42;;;1.05;;
67528;SDS011;54366;51.980;5.856;2023-05-17T08:33:58;5.28;;;1.42;;
67528;SDS011;54366;51.980;5.856;2023-05-17T08:36:37;6.53;;;1.30;;
67528;SDS011;54366;51.980;5.856;2023-05-17T08:39:10;7.95;;;1.80;;
67528;SDS011;54366;51.980;5.856;2023-05-17T08:41:45;5.35;;;1.40;;
67528;SDS011;54366;51.980;5.856;2023-05-17T08:44:12;7.45;;;1.50;;
67528;SDS011;54366;51.980;5.856;2023-05-17T08:46:47;6.82;;;1.45;;
67528;SDS011;54366;51.980;5.856;2023-05-17T08:49:26;7.43;;;1.65;;
67528;SDS011;54366;51.980;5.856;2023-05-17T08:51:53;5.38;;;1.20;;
67528;SDS011;54366;51.980;5.856;2023-05-17T08:54:27;6.32;;;1.73;;
67528;SDS011;54366;51.980;5.856;2023-05-17T08:57:00;4.00;;;0.90;;
67528;SDS011;54366;51.980;5.856;2023-05-17T08:59:37;5.00;;;1.10;;
67528;SDS011;54366;51.980;5.856;2023-05-17T09:02:04;7.45;;;1.23;;
67528;SDS011;54366;51.980;5.856;2023-05-17T09:04:37;4.50;;;1.33;;
67528;SDS011;54366;51.980;5.856;2023-05-17T09:07:10;5.00;;;0.95;;
67528;SDS011;54366;51.980;5.856;2023-05-17T09:09:43;6.60;;;1.42;;
67528;SDS011;54366;51.980;5.856;2023-05-17T09:12:09;7.57;;;1.85;;
67528;SDS011;54366;51.980;5.856;2023-05-17T09:14:42;7.15;;;1.23;;
67528;SDS011;54366;51.980;5.856;2023-05-17T09:17:16;4.60;;;1.17;;
67528;SDS011;54366;51.980;5.856;2023-05-17T09:19:44;3.47;;;0.80;;
67528;SDS011;54366;51.980;5.856;2023-05-17T09:22:32;5.55;;;1.60;;
67528;SDS011;54366;51.980;5.856;2023-05-17T09:25:07;3.13;;;1.00;;
67528;SDS011;54366;51.980;5.856;2023-05-17T09:27:46;6.32;;;1.25;;
67528;SDS011;54366;51.980;5.856;2023-05-17T09:30:25;3.15;;;1.17;;
67528;SDS011;54366;51.980;5.856;2023-05-17T09:33:07;5.50;;;1.40;;
67528;SDS011;54366;51.980;5.856;2023-05-17T09:35:41;6.25;;;1.08;;
67528;SDS011;54366;51.980;5.856;2023-05-17T09:38:14;2.88;;;0.80;;
67528;SDS011;54366;51.980;5.856;2023-05-17T09:40:42;6.50;;;1.27;;
67528;SDS011;54366;51.980;5.856;2023-05-17T09:43:21;5.25;;;1.05;;
67528;SDS011;54366;51.980;5.856;2023-05-17T09:45:56;3.65;;;1.08;;
67528;SDS011;54366;51.980;5.856;2023-05-17T09:48:29;4.10;;;1.17;;
67528;SDS011;54366;51.980;5.856;2023-05-17T09:51:02;5.72;;;1.10;;
67528;SDS011;54366;51.980;5.856;2023-05-17T09:53:36;2.35;;;0.82;;
67528;SDS011;54366;51.980;5.856;2023-05-17T09:56:11;4.90;;;1.10;;
67528;SDS011;54366;51.980;5.856;2023-05-17T09:58:44;4.35;;;1.20;;
67528;SDS011;54366;51.980;5.856;2023-05-17T10:01:17;4.03;;;0.88;;
67528;SDS011;54366;51.980;5.856;2023-05-17T10:03:44;4.88;;;0.98;;
67528;SDS011;54366;51.980;5.856;2023-05-17T10:06:16;3.88;;;1.00;;
67528;SDS011;54366;51.980;5.856;2023-05-17T10:08:57;3.67;;;0.80;;
67528;SDS011;54366;51.980;5.856;2023-05-17T10:11:31;5.75;;;1.05;;
67528;SDS011;54366;51.980;5.856;2023-05-17T10:14:10;3.00;;;1.00;;
67528;SDS011;54366;51.980;5.856;2023-05-17T10:16:53;2.80;;;0.82;;
67528;SDS011;54366;51.980;5.856;2023-05-17T10:19:27;3.50;;;1.00;;
67528;SDS011;54366;51.980;5.856;2023-05-17T10:22:00;2.53;;;0.60;;
67528;SDS011;54366;51.980;5.856;2023-05-17T10:24:34;2.40;;;0.70;;
67528;SDS011;54366;51.980;5.856;2023-05-17T10:27:08;3.33;;;0.85;;
67528;SDS011;54366;51.980;5.856;2023-05-17T10:29:37;5.53;;;1.13;;
67528;SDS011;54366;51.980;5.856;2023-05-17T10:32:12;3.70;;;0.88;;
67528;SDS011;54366;51.980;5.856;2023-05-17T10:34:47;4.68;;;1.05;;
67528;SDS011;54366;51.980;5.856;2023-05-17T10:37:28;2.70;;;0.73;;
67528;SDS011;54366;51.980;5.856;2023-05-17T10:39:56;3.25;;;0.93;;
67528;SDS011;54366;51.980;5.856;2023-05-17T10:42:29;2.75;;;0.68;;
67528;SDS011;54366;51.980;5.856;2023-05-17T10:45:05;3.95;;;0.60;;
67528;SDS011;54366;51.980;5.856;2023-05-17T10:47:38;2.35;;;0.70;;
67528;SDS011;54366;51.980;5.856;2023-05-17T10:50:19;4.10;;;0.70;;
67528;SDS011;54366;51.980;5.856;2023-05-17T10:52:57;1.95;;;0.68;;
67528;SDS011;54366;51.980;5.856;2023-05-17T10:55:36;3.42;;;0.90;;
67528;SDS011;54366;51.980;5.856;2023-05-17T10:58:17;4.07;;;0.90;;
67528;SDS011;54366;51.980;5.856;2023-05-17T11:00:51;4.60;;;0.85;;
67528;SDS011;54366;51.980;5.856;2023-05-17T11:03:26;4.13;;;0.95;;
67528;SDS011;54366;51.980;5.856;2023-05-17T11:06:12;4.45;;;0.95;;
67528;SDS011;54366;51.980;5.856;2023-05-17T11:09:06;4.25;;;1.25;;
67528;SDS011;54366;51.980;5.856;2023-05-17T11:12:01;4.53;;;1.00;;
67528;SDS011;54366;51.980;5.856;2023-05-17T11:14:52;3.15;;;0.75;;
67528;SDS011;54366;51.980;5.856;2023-05-17T11:20:32;5.70;;;1.00;;
67528;SDS011;54366;51.980;5.856;2023-05-17T11:23:00;3.42;;;0.93;;
67528;SDS011;54366;51.980;5.856;2023-05-17T11:25:38;6.75;;;1.30;;
67528;SDS011;54366;51.980;5.856;2023-05-17T11:28:08;4.13;;;0.93;;
67528;SDS011;54366;51.980;5.856;2023-05-17T11:30:59;4.68;;;1.08;;
67528;SDS011;54366;51.980;5.856;2023-05-17T11:33:42;4.68;;;1.20;;
67528;SDS011;54366;51.980;5.856;2023-05-17T11:36:23;5.20;;;1.17;;
67528;SDS011;54366;51.980;5.856;2023-05-17T11:39:13;5.40;;;1.00;;
67528;SDS011;54366;51.980;5.856;2023-05-17T11:41:47;6.93;;;1.30;;
67528;SDS011;54366;51.980;5.856;2023-05-17T11:44:31;5.45;;;1.30;;
67528;SDS011;54366;51.980;5.856;2023-05-17T11:47:05;5.28;;;1.45;;
67528;SDS011;54366;51.980;5.856;2023-05-17T11:49:41;4.22;;;1.10;;
67528;SDS011;54366;51.980;5.856;2023-05-17T11:52:14;3.00;;;0.80;;
67528;SDS011;54366;51.980;5.856;2023-05-17T11:54:48;4.03;;;1.00;;
67528;SDS011;54366;51.980;5.856;2023-05-17T11:57:14;3.47;;;1.08;;
67528;SDS011;54366;51.980;5.856;2023-05-17T12:02:38;5.13;;;1.65;;
67528;SDS011;54366;51.980;5.856;2023-05-17T12:05:10;5.43;;;1.58;;
67528;SDS011;54366;51.980;5.856;2023-05-17T12:07:50;5.53;;;1.50;;
67528;SDS011;54366;51.980;5.856;2023-05-17T12:10:26;4.20;;;1.10;;
67528;SDS011;54366;51.980;5.856;2023-05-17T12:13:00;6.38;;;1.50;;
67528;SDS011;54366;51.980;5.856;2023-05-17T12:15:27;6.75;;;1.73;;
67528;SDS011;54366;51.980;5.856;2023-05-17T12:18:01;7.57;;;1.80;;
67528;SDS011;54366;51.980;5.856;2023-05-17T12:20:34;4.22;;;1.30;;
67528;SDS011;54366;51.980;5.856;2023-05-17T12:23:08;4.55;;;1.45;;
67528;SDS011;54366;51.980;5.856;2023-05-17T12:25:41;5.30;;;1.65;;
67528;SDS011;54366;51.980;5.856;2023-05-17T12:28:15;5.25;;;1.48;;
67528;SDS011;54366;51.980;5.856;2023-05-17T12:30:53;5.82;;;1.50;;
67528;SDS011;54366;51.980;5.856;2023-05-17T12:33:35;5.55;;;1.55;;
67528;SDS011;54366;51.980;5.856;2023-05-17T12:36:16;6.65;;;1.77;;
67528;SDS011;54366;51.980;5.856;2023-05-17T12:38:49;5.13;;;1.30;;
67528;SDS011;54366;51.980;5.856;2023-05-17T12:41:17;5.25;;;1.60;;
67528;SDS011;54366;51.980;5.856;2023-05-17T12:43:53;3.63;;;1.10;;
67528;SDS011;54366;51.980;5.856;2023-05-17T12:46:21;5.45;;;1.35;;
67528;SDS011;54366;51.980;5.856;2023-05-17T12:48:54;6.13;;;1.50;;
67528;SDS011;54366;51.980;5.856;2023-05-17T12:51:39;4.78;;;1.25;;
67528;SDS011;54366;51.980;5.856;2023-05-17T12:54:28;7.20;;;1.95;;
67528;SDS011;54366;51.980;5.856;2023-05-17T12:57:11;4.80;;;1.40;;
67528;SDS011;54366;51.980;5.856;2023-05-17T12:59:46;4.00;;;1.50;;
67528;SDS011;54366;51.980;5.856;2023-05-17T13:02:25;4.18;;;1.45;;
67528;SDS011;54366;51.980;5.856;2023-05-17T13:04:58;5.22;;;1.88;;
67528;SDS011;54366;51.980;5.856;2023-05-17T13:07:46;7.10;;;1.95;;
67528;SDS011;54366;51.980;5.856;2023-05-17T13:10:19;5.72;;;1.40;;
67528;SDS011;54366;51.980;5.856;2023-05-17T13:12:57;5.60;;;2.20;;
67528;SDS011;54366;51.980;5.856;2023-05-17T13:15:31;5.20;;;1.63;;
67528;SDS011;54366;51.980;5.856;2023-05-17T13:18:11;6.25;;;1.50;;
67528;SDS011;54366;51.980;5.856;2023-05-17T13:20:46;3.72;;;1.40;;
67528;SDS011;54366;51.980;5.856;2023-05-17T13:23:13;4.35;;;1.20;;
67528;SDS011;54366;51.980;5.856;2023-05-17T13:25:46;5.72;;;1.38;;
67528;SDS011;54366;51.980;5.856;2023-05-17T13:28:19;4.40;;;1.13;;
67528;SDS011;54366;51.980;5.856;2023-05-17T13:30:53;5.82;;;1.50;;
67528;SDS011;54366;51.980;5.856;2023-05-17T13:33:32;5.95;;;1.80;;
67528;SDS011;54366;51.980;5.856;2023-05-17T13:36:04;5.50;;;1.58;;
67528;SDS011;54366;51.980;5.856;2023-05-17T13:38:31;4.90;;;1.38;;
67528;SDS011;54366;51.980;5.856;2023-05-17T13:41:03;5.75;;;1.48;;
67528;SDS011;54366;51.980;5.856;2023-05-17T13:46:04;6.97;;;1.95;;
67528;SDS011;54366;51.980;5.856;2023-05-17T13:48:36;3.78;;;1.70;;
67528;SDS011;54366;51.980;5.856;2023-05-17T13:51:09;5.07;;;1.40;;
67528;SDS011;54366;51.980;5.856;2023-05-17T13:53:42;7.20;;;1.63;;
67528;SDS011;54366;51.980;5.856;2023-05-17T13:56:09;5.22;;;1.58;;
67528;SDS011;54366;51.980;5.856;2023-05-17T13:58:41;6.55;;;2.05;;
67528;SDS011;54366;51.980;5.856;2023-05-17T14:01:14;7.60;;;2.13;;
67528;SDS011;54366;51.980;5.856;2023-05-17T14:03:49;6.00;;;1.83;;
67528;SDS011;54366;51.980;5.856;2023-05-17T14:06:16;5.47;;;2.05;;
67528;SDS011;54366;51.980;5.856;2023-05-17T14:08:48;5.35;;;1.58;;
67528;SDS011;54366;51.980;5.856;2023-05-17T14:11:21;7.20;;;1.80;;
67528;SDS011;54366;51.980;5.856;2023-05-17T14:13:48;6.32;;;1.80;;
67528;SDS011;54366;51.980;5.856;2023-05-17T14:16:20;7.10;;;2.10;;
67528;SDS011;54366;51.980;5.856;2023-05-17T14:18:53;6.22;;;2.00;;
67528;SDS011;54366;51.980;5.856;2023-05-17T14:21:26;8.82;;;2.00;;
67528;SDS011;54366;51.980;5.856;2023-05-17T14:23:59;4.45;;;1.25;;
67528;SDS011;54366;51.980;5.856;2023-05-17T14:26:32;6.03;;;1.58;;
67528;SDS011;54366;51.980;5.856;2023-05-17T14:29:05;5.40;;;1.67;;
67528;SDS011;54366;51.980;5.856;2023-05-17T14:31:32;6.80;;;2.22;;
67528;SDS011;54366;51.980;5.856;2023-05-17T14:34:04;3.80;;;1.23;;
67528;SDS011;54366;51.980;5.856;2023-05-17T14:36:44;7.20;;;1.73;;
67528;SDS011;54366;51.980;5.856;2023-05-17T14:39:11;4.47;;;1.40;;
67528;SDS011;54366;51.980;5.856;2023-05-17T14:41:43;7.63;;;2.03;;
67528;SDS011;54366;51.980;5.856;2023-05-17T14:44:16;9.88;;;2.13;;
67528;SDS011;54366;51.980;5.856;2023-05-17T14:46:49;6.97;;;2.13;;
67528;SDS011;54366;51.980;5.856;2023-05-17T14:49:16;8.35;;;1.90;;
67528;SDS011;54366;51.980;5.856;2023-05-17T14:51:48;4.45;;;1.52;;
67528;SDS011;54366;51.980;5.856;2023-05-17T14:54:21;5.28;;;1.40;;
67528;SDS011;54366;51.980;5.856;2023-05-17T14:56:56;7.93;;;2.08;;
67528;SDS011;54366;51.980;5.856;2023-05-17T14:59:29;6.35;;;1.60;;
67528;SDS011;54366;51.980;5.856;2023-05-17T15:02:05;4.82;;;1.85;;
67528;SDS011;54366;51.980;5.856;2023-05-17T15:04:38;4.82;;;1.33;;
67528;SDS011;54366;51.980;5.856;2023-05-17T15:07:05;5.20;;;1.42;;
67528;SDS011;54366;51.980;5.856;2023-05-17T15:09:38;5.57;;;1.75;;
67528;SDS011;54366;51.980;5.856;2023-05-17T15:12:12;5.40;;;1.40;;
67528;SDS011;54366;51.980;5.856;2023-05-17T15:14:40;6.50;;;2.00;;
67528;SDS011;54366;51.980;5.856;2023-05-17T15:17:12;5.70;;;1.45;;
67528;SDS011;54366;51.980;5.856;2023-05-17T15:19:39;5.38;;;1.55;;
67528;SDS011;54366;51.980;5.856;2023-05-17T15:22:11;3.38;;;1.35;;
67528;SDS011;54366;51.980;5.856;2023-05-17T15:24:44;6.45;;;1.70;;
67528;SDS011;54366;51.980;5.856;2023-05-17T15:27:17;5.13;;;1.38;;
67528;SDS011;54366;51.980;5.856;2023-05-17T15:29:50;5.55;;;1.70;;
67528;SDS011;54366;51.980;5.856;2023-05-17T15:32:23;5.40;;;1.70;;
67528;SDS011;54366;51.980;5.856;2023-05-17T15:35:03;5.68;;;1.40;;
67528;SDS011;54366;51.980;5.856;2023-05-17T15:37:36;6.35;;;1.65;;
67528;SDS011;54366;51.980;5.856;2023-05-17T15:40:10;4.20;;;1.40;;
67528;SDS011;54366;51.980;5.856;2023-05-17T15:42:37;3.20;;;1.40;;